METAR Data
IDs: Format: Raw Decoded Include TAF

Data at: 0214 UTC 25 Feb 2021

LHSM 250145Z AUTO 00000KT 6000 NCD 04/02 Q1034